createdAt,value
2018-12-18T00:00:47.838Z,7.00
2018-12-18T00:03:17.059Z,7.00
2018-12-18T00:05:48.486Z,6.90
2018-12-18T00:08:17.875Z,6.90
2018-12-18T00:10:55.540Z,6.90
2018-12-18T00:13:24.675Z,6.90
2018-12-18T00:15:55.334Z,6.90
2018-12-18T00:18:25.935Z,6.90
2018-12-18T00:20:56.625Z,6.90
2018-12-18T00:23:26.142Z,6.90
2018-12-18T00:25:59.271Z,6.90
2018-12-18T00:28:29.835Z,6.90
2018-12-18T00:31:02.666Z,6.90
2018-12-18T00:33:32.424Z,6.90
2018-12-18T00:36:07.057Z,6.80
2018-12-18T00:38:36.598Z,6.90
2018-12-18T00:41:08.102Z,6.80
2018-12-18T00:43:37.480Z,6.70
2018-12-18T00:46:14.573Z,6.70
2018-12-18T00:48:43.684Z,6.70
2018-12-18T00:51:15.613Z,6.80
2018-12-18T00:53:44.739Z,6.80
2018-12-18T00:56:17.418Z,6.80
2018-12-18T00:58:46.705Z,6.70
2018-12-18T01:01:24.918Z,6.80
2018-12-18T01:03:54.694Z,6.80
2018-12-18T01:06:24.008Z,6.80
2018-12-18T01:08:53.226Z,6.80
2018-12-18T01:11:26.174Z,6.80
2018-12-18T01:13:55.232Z,6.80
2018-12-18T01:16:28.578Z,6.80
2018-12-18T01:18:58.248Z,6.80
2018-12-18T01:21:29.786Z,6.80
2018-12-18T01:23:58.914Z,6.80
2018-12-18T01:26:33.635Z,6.70
2018-12-18T01:29:02.635Z,6.80
2018-12-18T01:31:36.194Z,6.70
2018-12-18T01:34:05.658Z,6.60
2018-12-18T01:36:38.797Z,6.60
2018-12-18T01:39:08.089Z,6.70
2018-12-18T01:41:40.468Z,6.70
2018-12-18T01:44:09.571Z,6.70
2018-12-18T01:46:42.794Z,6.70
2018-12-18T01:49:12.937Z,6.70
2018-12-18T01:51:47.766Z,6.80
2018-12-18T01:54:17.517Z,6.70
2018-12-18T01:56:49.474Z,6.70
2018-12-18T01:59:18.714Z,6.70
2018-12-18T02:01:55.149Z,6.70
2018-12-18T02:04:24.242Z,6.70
2018-12-18T02:06:55.798Z,6.80
2018-12-18T02:09:25.377Z,6.70
2018-12-18T02:11:58.876Z,6.80
2018-12-18T02:14:28.353Z,6.80
2018-12-18T02:17:02.266Z,6.80
2018-12-18T02:19:31.671Z,6.80
2018-12-18T02:22:03.379Z,6.80
2018-12-18T02:24:33.123Z,6.90
2018-12-18T02:27:07.770Z,6.90
2018-12-18T02:29:37.088Z,6.90
2018-12-18T02:32:10.252Z,6.90
2018-12-18T02:34:40.397Z,6.90
2018-12-18T02:37:16.018Z,6.90
2018-12-18T02:39:46.780Z,6.90
2018-12-18T02:42:17.741Z,6.90
2018-12-18T02:44:47.599Z,7.00
2018-12-18T02:47:19.664Z,6.90
2018-12-18T02:49:49.431Z,6.90
2018-12-18T02:52:22.303Z,6.90
2018-12-18T02:54:52.521Z,6.90
2018-12-18T02:57:25.196Z,6.90
2018-12-18T02:59:54.665Z,6.90
2018-12-18T03:02:28.683Z,6.90
2018-12-18T03:04:57.917Z,6.90
2018-12-18T03:07:30.190Z,6.90
2018-12-18T03:09:59.977Z,6.90
2018-12-18T03:12:33.079Z,7.00
2018-12-18T03:15:02.446Z,7.00
2018-12-18T03:17:35.247Z,7.00
2018-12-18T03:20:04.529Z,7.00
2018-12-18T03:22:37.462Z,7.00
2018-12-18T03:25:07.170Z,7.10
2018-12-18T03:27:40.421Z,7.10
2018-12-18T03:30:09.909Z,7.10
2018-12-18T03:32:48.721Z,7.10
2018-12-18T03:35:18.357Z,7.00
2018-12-18T03:37:49.197Z,7.00
2018-12-18T03:40:18.713Z,7.00
2018-12-18T03:42:49.251Z,7.00
2018-12-18T03:45:18.535Z,7.10
2018-12-18T03:47:52.226Z,7.10
2018-12-18T03:51:52.263Z,7.10
2018-12-18T03:54:21.789Z,7.10
2018-12-18T03:56:57.607Z,7.10
2018-12-18T03:59:26.865Z,7.00
2018-12-18T04:01:59.151Z,7.00
2018-12-18T04:04:35.309Z,7.00
2018-12-18T04:07:04.641Z,7.00
2018-12-18T04:09:34.148Z,7.10
2018-12-18T04:12:09.646Z,7.00
2018-12-18T04:14:38.817Z,7.00
2018-12-18T04:17:08.707Z,7.00
2018-12-18T04:19:38.101Z,7.00
2018-12-18T04:22:13.036Z,7.00
2018-12-18T04:24:43.162Z,7.00
2018-12-18T04:27:17.225Z,7.10
2018-12-18T04:29:46.195Z,7.10
2018-12-18T04:32:17.307Z,7.10
2018-12-18T04:34:46.478Z,7.00
2018-12-18T04:37:19.232Z,7.00
2018-12-18T04:39:48.740Z,7.10
2018-12-18T04:42:22.968Z,7.10
2018-12-18T04:44:52.259Z,7.20
2018-12-18T04:47:25.294Z,7.20
2018-12-18T04:49:54.383Z,7.20
2018-12-18T04:52:28.413Z,7.30
2018-12-18T04:54:57.846Z,7.20
2018-12-18T04:57:32.030Z,7.20
2018-12-18T05:00:01.105Z,7.20
2018-12-18T05:02:33.832Z,7.20
2018-12-18T05:05:02.999Z,7.20
2018-12-18T05:07:36.192Z,7.20
2018-12-18T05:10:06.145Z,7.20
2018-12-18T05:12:38.267Z,7.30
2018-12-18T05:15:08.084Z,7.20
2018-12-18T05:17:41.000Z,7.20
2018-12-18T05:20:15.439Z,7.20
2018-12-18T05:22:44.940Z,7.20
2018-12-18T05:25:13.983Z,7.20
2018-12-18T05:27:44.712Z,7.20
2018-12-18T05:30:14.049Z,7.20
2018-12-18T05:32:49.702Z,7.10
2018-12-18T05:35:19.213Z,7.10
2018-12-18T05:37:51.853Z,7.10
2018-12-18T05:40:22.154Z,7.20
2018-12-18T05:42:54.167Z,7.10
2018-12-18T05:45:23.254Z,7.20
2018-12-18T05:47:58.115Z,7.20
2018-12-18T05:50:27.967Z,7.10
2018-12-18T05:53:00.458Z,7.20
2018-12-18T05:55:29.790Z,7.20
2018-12-18T05:58:05.493Z,7.20
2018-12-18T06:00:34.954Z,7.20
2018-12-18T06:03:05.846Z,7.20
2018-12-18T06:05:35.406Z,7.30
2018-12-18T06:08:10.757Z,7.30
2018-12-18T06:10:39.863Z,7.30
2018-12-18T06:13:13.070Z,7.20
2018-12-18T06:15:42.635Z,7.20
2018-12-18T06:18:17.007Z,7.10
2018-12-18T06:20:46.267Z,7.10
2018-12-18T06:23:19.615Z,7.00
2018-12-18T06:26:00.893Z,7.10
2018-12-18T06:28:30.395Z,7.10
2018-12-18T06:30:59.698Z,7.20
2018-12-18T06:33:29.426Z,7.20
2018-12-18T06:35:58.697Z,7.20
2018-12-18T06:38:27.751Z,7.30
2018-12-18T06:40:57.459Z,7.30
2018-12-18T06:43:29.343Z,7.30
2018-12-18T06:45:58.585Z,7.30
2018-12-18T06:48:31.637Z,7.40
2018-12-18T06:51:01.153Z,7.40
2018-12-18T06:53:33.949Z,7.50
2018-12-18T06:56:03.597Z,7.30
2018-12-18T06:58:36.473Z,7.30
2018-12-18T07:01:05.555Z,7.40
2018-12-18T07:03:37.685Z,7.30
2018-12-18T07:06:07.379Z,7.30
2018-12-18T07:08:44.740Z,7.30
2018-12-18T07:11:13.960Z,7.30
2018-12-18T07:13:45.780Z,7.30
2018-12-18T07:16:14.963Z,7.20
2018-12-18T07:18:45.101Z,7.20
2018-12-18T07:21:14.654Z,7.20
2018-12-18T07:23:50.207Z,7.00
2018-12-18T07:26:19.407Z,7.10
2018-12-18T07:28:51.944Z,7.10
2018-12-18T07:31:21.317Z,7.10
2018-12-18T07:33:56.701Z,7.10
2018-12-18T07:36:25.920Z,7.20
2018-12-18T07:39:00.423Z,7.10
2018-12-18T07:41:30.263Z,7.20
2018-12-18T07:44:03.690Z,7.20
2018-12-18T07:46:33.011Z,7.20
2018-12-18T07:49:07.327Z,7.30
2018-12-18T07:51:36.650Z,7.30
2018-12-18T07:54:10.183Z,7.40
2018-12-18T07:56:40.859Z,7.30
2018-12-18T07:59:13.418Z,7.30
2018-12-18T08:01:43.111Z,7.40
2018-12-18T08:04:15.914Z,7.40
2018-12-18T08:06:45.003Z,7.40
2018-12-18T08:09:18.399Z,7.50
2018-12-18T08:11:49.295Z,7.50
2018-12-18T08:14:20.300Z,7.50
2018-12-18T08:19:29.063Z,7.50
2018-12-18T08:21:58.200Z,7.60
2018-12-18T08:24:27.637Z,7.60
2018-12-18T08:26:56.927Z,7.60
2018-12-18T08:29:27.724Z,7.70
2018-12-18T08:31:57.135Z,7.70
2018-12-18T08:34:30.837Z,7.70
2018-12-18T08:37:00.250Z,7.70
2018-12-18T08:39:31.738Z,7.80
2018-12-18T08:42:00.941Z,7.80
2018-12-18T08:44:37.760Z,7.80
2018-12-18T08:47:07.215Z,7.80
2018-12-18T08:49:49.610Z,7.80
2018-12-18T08:52:20.126Z,7.90
2018-12-18T08:54:50.544Z,8.10
2018-12-18T08:57:20.869Z,8.20
2018-12-18T08:59:51.900Z,8.90
2018-12-18T09:02:23.556Z,10.70
2018-12-18T09:04:54.519Z,12.30
2018-12-18T09:07:25.045Z,14.20
2018-12-18T09:09:55.135Z,15.90
2018-12-18T09:12:24.853Z,17.50
2018-12-18T09:14:58.245Z,18.70
2018-12-18T09:17:55.559Z,19.30
2018-12-18T09:20:25.660Z,20.50
2018-12-18T09:22:57.739Z,21.70
2018-12-18T09:25:26.866Z,21.00
2018-12-18T09:28:01.348Z,21.40
2018-12-18T09:30:31.367Z,22.30
2018-12-18T09:33:04.498Z,22.60
2018-12-18T09:35:34.025Z,23.20
2018-12-18T09:38:11.204Z,22.30
2018-12-18T09:40:45.395Z,22.70
2018-12-18T09:43:19.780Z,23.40
2018-12-18T09:45:48.874Z,23.20
2018-12-18T09:48:18.341Z,23.60
2018-12-18T09:50:47.551Z,23.10
2018-12-18T09:53:17.055Z,23.20
2018-12-18T09:55:46.177Z,22.60
2018-12-18T09:58:20.525Z,21.40
2018-12-18T10:00:49.930Z,20.90
2018-12-18T10:03:19.694Z,20.30
2018-12-18T10:05:49.011Z,18.90
2018-12-18T10:08:22.827Z,18.20
2018-12-18T10:10:52.062Z,17.70
2018-12-18T10:13:26.788Z,17.20
2018-12-18T10:15:56.241Z,16.90
2018-12-18T10:18:28.183Z,16.10
2018-12-18T10:20:57.371Z,16.30
2018-12-18T10:23:33.786Z,16.20
2018-12-18T10:26:02.951Z,16.20
2018-12-18T10:28:36.033Z,16.40
2018-12-18T10:31:05.574Z,16.60
2018-12-18T10:33:38.070Z,16.50
2018-12-18T10:36:07.220Z,16.20
2018-12-18T10:38:38.041Z,15.10
2018-12-18T10:41:07.166Z,14.00
2018-12-18T10:43:45.808Z,13.90
2018-12-18T10:46:15.216Z,14.10
2018-12-18T10:48:44.426Z,14.20
2018-12-18T10:51:13.740Z,14.00
2018-12-18T10:53:49.242Z,13.80
2018-12-18T10:56:18.442Z,13.50
2018-12-18T10:58:49.211Z,13.10
2018-12-18T11:01:24.530Z,13.00
2018-12-18T11:03:53.633Z,12.90
2018-12-18T11:06:22.951Z,12.80
2018-12-18T11:08:59.849Z,12.70
2018-12-18T11:11:29.078Z,12.60
2018-12-18T11:13:58.464Z,12.50
2018-12-18T11:16:27.594Z,12.50
2018-12-18T11:19:04.102Z,12.40
2018-12-18T11:21:33.536Z,12.20
2018-12-18T11:24:06.794Z,12.00
2018-12-18T11:26:35.961Z,12.10
2018-12-18T11:29:09.065Z,11.90
2018-12-18T11:31:38.218Z,11.70
2018-12-18T11:34:12.176Z,11.70
2018-12-18T11:36:42.038Z,11.60
2018-12-18T11:39:15.985Z,11.30
2018-12-18T11:41:45.266Z,11.50
2018-12-18T11:44:22.435Z,11.40
2018-12-18T11:46:51.684Z,11.30
2018-12-18T11:49:20.880Z,11.30
2018-12-18T11:51:50.844Z,11.40
2018-12-18T11:54:22.444Z,11.40
2018-12-18T11:56:51.758Z,11.30
2018-12-18T11:59:36.216Z,11.30
2018-12-18T12:02:05.809Z,11.30
2018-12-18T12:04:36.446Z,11.50
2018-12-18T12:07:06.426Z,11.20
2018-12-18T12:09:35.566Z,11.30
2018-12-18T12:12:04.751Z,11.40
2018-12-18T12:14:34.338Z,11.10
2018-12-18T12:17:03.493Z,11.00
2018-12-18T12:19:35.350Z,10.90
2018-12-18T12:22:04.987Z,10.50
2018-12-18T12:24:38.460Z,10.50
2018-12-18T12:27:13.256Z,10.40
2018-12-18T12:29:42.578Z,10.50
2018-12-18T12:32:11.706Z,10.40
2018-12-18T12:34:43.514Z,10.20
2018-12-18T12:37:12.670Z,10.10
2018-12-18T12:39:46.961Z,10.10
2018-12-18T12:42:16.184Z,10.00
2018-12-18T12:44:52.827Z,10.00
2018-12-18T12:47:22.316Z,10.00
2018-12-18T12:49:51.905Z,9.90
2018-12-18T12:52:21.282Z,10.10
2018-12-18T12:54:58.223Z,10.30
2018-12-18T12:57:27.439Z,10.50
2018-12-18T12:59:59.602Z,10.50
2018-12-18T13:02:29.055Z,10.60
2018-12-18T13:05:02.755Z,10.60
2018-12-18T13:07:32.063Z,10.70
2018-12-18T13:10:06.258Z,10.50
2018-12-18T13:12:35.760Z,10.70
2018-12-18T13:15:09.277Z,11.30
2018-12-18T13:17:38.499Z,12.50
2018-12-18T13:20:11.785Z,13.40
2018-12-18T13:22:41.273Z,14.30
2018-12-18T13:25:16.621Z,15.10
2018-12-18T13:27:46.054Z,15.60
2018-12-18T13:30:17.805Z,15.60
2018-12-18T13:32:46.994Z,15.90
2018-12-18T13:35:22.550Z,15.90
2018-12-18T13:37:52.016Z,15.60
2018-12-18T13:40:25.333Z,15.50
2018-12-18T13:42:54.912Z,15.20
2018-12-18T13:45:30.947Z,14.70
2018-12-18T13:48:00.131Z,15.10
2018-12-18T13:50:29.723Z,15.60
2018-12-18T13:52:58.892Z,15.90
2018-12-18T13:55:36.663Z,15.70
2018-12-18T13:58:03.177Z,15.40
2018-12-18T14:00:34.611Z,15.20
2018-12-18T14:03:04.176Z,14.70
2018-12-18T14:05:34.715Z,14.00
2018-12-18T14:08:03.792Z,13.10
2018-12-18T14:10:38.250Z,12.60
2018-12-18T14:13:07.527Z,12.30
2018-12-18T14:15:40.568Z,12.10
2018-12-18T14:18:10.374Z,11.80
2018-12-18T14:20:45.281Z,11.40
2018-12-18T14:23:14.788Z,11.10
2018-12-18T14:25:46.777Z,10.60
2018-12-18T14:28:16.398Z,10.70
2018-12-18T14:30:48.265Z,10.40
2018-12-18T14:33:18.305Z,10.20
2018-12-18T14:35:53.404Z,10.10
2018-12-18T14:38:22.897Z,10.10
2018-12-18T14:40:55.227Z,10.10
2018-12-18T14:43:24.578Z,9.90
2018-12-18T14:46:06.615Z,9.80
2018-12-18T14:48:35.976Z,9.80
2018-12-18T14:51:05.425Z,9.70
2018-12-18T14:53:34.869Z,9.50
2018-12-18T14:56:05.339Z,9.50
2018-12-18T14:58:37.087Z,9.50
2018-12-18T15:01:08.527Z,9.50
2018-12-18T15:03:38.187Z,9.40
2018-12-18T15:06:13.137Z,9.30
2018-12-18T15:08:42.755Z,9.30
2018-12-18T15:11:15.643Z,9.30
2018-12-18T15:13:45.180Z,9.30
2018-12-18T15:16:17.058Z,9.20
2018-12-18T15:18:46.977Z,9.20
2018-12-18T15:21:22.670Z,9.10
2018-12-18T15:23:52.329Z,9.10
2018-12-18T15:26:26.311Z,9.00
2018-12-18T15:28:55.645Z,9.00
2018-12-18T15:31:27.909Z,8.90
2018-12-18T15:33:58.227Z,8.80
2018-12-18T15:36:30.583Z,8.80
2018-12-18T15:39:00.217Z,8.70
2018-12-18T15:41:33.206Z,8.60
2018-12-18T15:44:02.604Z,8.60
2018-12-18T15:46:34.391Z,8.60
2018-12-18T15:49:03.861Z,8.50
2018-12-18T15:51:33.191Z,8.50
2018-12-18T15:56:47.377Z,8.50
2018-12-18T15:59:22.357Z,8.30
2018-12-18T16:01:51.747Z,8.30
2018-12-18T16:04:20.952Z,8.20
2018-12-18T16:06:50.422Z,8.20
2018-12-18T16:09:19.980Z,8.20
2018-12-18T16:11:49.113Z,8.20
2018-12-18T16:14:19.531Z,8.20
2018-12-18T16:16:49.436Z,8.20
2018-12-18T16:19:19.382Z,8.20
2018-12-18T16:21:49.502Z,8.20
2018-12-18T16:24:20.678Z,8.20
2018-12-18T16:26:49.894Z,8.10
2018-12-18T16:29:21.780Z,8.10
2018-12-18T16:31:50.993Z,8.10
2018-12-18T16:34:24.454Z,8.10
2018-12-18T16:36:53.869Z,8.00
2018-12-18T16:39:28.209Z,8.00
2018-12-18T16:41:57.348Z,8.00
2018-12-18T16:44:29.696Z,7.90
2018-12-18T16:46:59.190Z,7.90
2018-12-18T16:49:30.631Z,7.90
2018-12-18T16:52:00.161Z,7.90
2018-12-18T16:54:32.713Z,7.90
2018-12-18T16:57:02.019Z,7.90
2018-12-18T16:59:39.004Z,7.90
2018-12-18T17:02:08.272Z,7.90
2018-12-18T17:04:41.194Z,7.90
2018-12-18T17:07:10.785Z,7.80
2018-12-18T17:09:39.994Z,7.80
2018-12-18T17:12:09.292Z,7.80
2018-12-18T17:14:45.972Z,7.80
2018-12-18T17:17:15.505Z,7.90
2018-12-18T17:19:49.302Z,7.80
2018-12-18T17:22:23.268Z,7.80
2018-12-18T17:24:52.679Z,7.80
2018-12-18T17:27:21.899Z,7.70
2018-12-18T17:30:04.619Z,7.70
2018-12-18T17:32:34.994Z,7.70
2018-12-18T17:35:05.542Z,7.70
2018-12-18T17:37:36.276Z,7.70
2018-12-18T17:40:07.592Z,7.70
2018-12-18T17:42:36.799Z,7.60
2018-12-18T17:45:07.157Z,7.60
2018-12-18T17:47:36.418Z,7.60
2018-12-18T17:50:06.734Z,7.60
2018-12-18T17:52:38.861Z,7.60
2018-12-18T17:55:10.114Z,7.60
2018-12-18T17:57:39.644Z,7.60
2018-12-18T18:00:13.371Z,7.60
2018-12-18T18:02:42.612Z,7.50
2018-12-18T18:05:16.114Z,7.60
2018-12-18T18:07:45.477Z,7.60
2018-12-18T18:10:16.851Z,7.60
2018-12-18T18:12:47.431Z,7.60
2018-12-18T18:15:24.797Z,7.60
2018-12-18T18:17:54.685Z,7.60
2018-12-18T18:20:24.716Z,7.70
2018-12-18T18:22:53.966Z,7.70
2018-12-18T18:25:29.790Z,7.70
2018-12-18T18:27:58.957Z,7.70
2018-12-18T18:30:36.558Z,7.70
2018-12-18T18:33:05.852Z,7.70
2018-12-18T18:35:37.254Z,7.70
2018-12-18T18:38:06.887Z,7.70
2018-12-18T18:40:40.371Z,7.70
2018-12-18T18:43:09.777Z,7.80
2018-12-18T18:45:47.178Z,7.80
2018-12-18T18:48:22.946Z,7.80
2018-12-18T18:50:58.377Z,7.80
2018-12-18T18:53:28.850Z,7.80
2018-12-18T18:55:59.789Z,7.80
2018-12-18T18:58:29.082Z,7.80
2018-12-18T19:00:58.918Z,7.80
2018-12-18T19:03:28.688Z,7.80
2018-12-18T19:05:59.385Z,7.80
2018-12-18T19:08:28.719Z,7.80
2018-12-18T19:11:01.168Z,7.80
2018-12-18T19:13:30.464Z,7.80
2018-12-18T19:16:08.614Z,7.80
2018-12-18T19:18:39.076Z,7.90
2018-12-18T19:21:16.462Z,7.90
2018-12-18T19:23:47.621Z,7.90
2018-12-18T19:26:18.000Z,7.90
2018-12-18T19:28:50.219Z,8.00
2018-12-18T19:31:21.382Z,8.10
2018-12-18T19:33:50.919Z,8.10
2018-12-18T19:36:25.765Z,8.20
2018-12-18T19:38:55.661Z,8.20
2018-12-18T19:41:27.329Z,8.20
2018-12-18T19:43:56.602Z,8.20
2018-12-18T19:46:30.253Z,8.10
2018-12-18T19:48:59.739Z,8.10
2018-12-18T19:51:35.415Z,8.10
2018-12-18T19:58:51.545Z,8.20
2018-12-18T20:01:20.797Z,8.20
2018-12-18T20:03:50.145Z,8.20
2018-12-18T20:06:19.635Z,8.20
2018-12-18T20:08:49.993Z,8.20
2018-12-18T20:11:19.430Z,8.20
2018-12-18T20:13:52.506Z,8.30
2018-12-18T20:16:21.812Z,8.30
2018-12-18T20:18:57.388Z,8.30
2018-12-18T20:21:27.219Z,8.40
2018-12-18T20:24:02.004Z,8.50
2018-12-18T20:26:31.843Z,8.40
2018-12-18T20:29:04.830Z,8.40
2018-12-18T20:31:37.150Z,8.50
2018-12-18T20:34:12.471Z,8.50
2018-12-18T20:36:42.368Z,8.50
2018-12-18T20:39:13.019Z,8.50
2018-12-18T20:41:42.500Z,8.50
2018-12-18T20:44:17.497Z,8.60
2018-12-18T20:46:46.738Z,8.60
2018-12-18T20:49:19.043Z,8.60
2018-12-18T20:51:48.984Z,8.60
2018-12-18T20:54:23.561Z,8.60
2018-12-18T20:56:53.104Z,8.60
2018-12-18T20:59:26.813Z,8.60
2018-12-18T21:01:56.246Z,8.70
2018-12-18T21:04:30.106Z,8.70
2018-12-18T21:06:59.740Z,8.70
2018-12-18T21:12:06.973Z,8.60
2018-12-18T21:14:36.289Z,8.70
2018-12-18T21:17:05.789Z,8.70
2018-12-18T21:19:35.524Z,8.70
2018-12-18T21:22:09.844Z,8.80
2018-12-18T21:24:39.109Z,8.70
2018-12-18T21:27:08.294Z,8.80
2018-12-18T21:29:40.184Z,8.80
2018-12-18T21:32:09.957Z,8.80
2018-12-18T21:34:42.545Z,8.90
2018-12-18T21:37:12.255Z,9.00
2018-12-18T21:39:43.727Z,9.00
2018-12-18T21:42:13.283Z,8.90
2018-12-18T21:44:49.418Z,8.90
2018-12-18T21:47:19.188Z,8.90
2018-12-18T21:49:49.727Z,8.90
2018-12-18T21:52:19.121Z,9.00
2018-12-18T21:54:51.598Z,9.00
2018-12-18T21:57:21.004Z,8.90
2018-12-18T21:59:55.165Z,9.00
2018-12-18T22:02:25.127Z,8.90
2018-12-18T22:04:58.237Z,8.90
2018-12-18T22:07:27.463Z,8.90
2018-12-18T22:10:00.623Z,8.80
2018-12-18T22:12:29.873Z,8.80
2018-12-18T22:15:03.080Z,8.80
2018-12-18T22:17:32.812Z,8.80
2018-12-18T22:20:07.344Z,8.80
2018-12-18T22:22:37.354Z,8.80
2018-12-18T22:25:11.621Z,8.70
2018-12-18T22:27:42.016Z,8.70
2018-12-18T22:30:18.820Z,8.70
2018-12-18T22:32:48.477Z,8.70
2018-12-18T22:35:19.139Z,8.70
2018-12-18T22:37:48.887Z,8.80
2018-12-18T22:40:23.904Z,8.70
2018-12-18T22:42:53.171Z,8.70
2018-12-18T22:45:22.699Z,8.70
2018-12-18T22:47:51.858Z,8.60
2018-12-18T22:50:25.507Z,8.70
2018-12-18T22:52:55.150Z,8.60
2018-12-18T22:55:27.484Z,8.70
2018-12-18T22:57:57.283Z,8.70
2018-12-18T23:00:35.656Z,8.60
2018-12-18T23:03:04.934Z,8.60
2018-12-18T23:05:35.042Z,8.60
2018-12-18T23:08:04.329Z,8.60
2018-12-18T23:10:35.158Z,8.60
2018-12-18T23:13:04.397Z,8.50
2018-12-18T23:15:37.606Z,8.50
2018-12-18T23:18:07.082Z,8.50
2018-12-18T23:20:40.026Z,8.50
2018-12-18T23:23:09.192Z,8.50
2018-12-18T23:25:42.317Z,8.50
2018-12-18T23:28:11.529Z,8.50
2018-12-18T23:30:45.141Z,8.40
2018-12-18T23:33:14.349Z,8.50
2018-12-18T23:35:47.927Z,8.50
2018-12-18T23:38:17.373Z,8.50
2018-12-18T23:40:51.180Z,8.40
2018-12-18T23:43:20.392Z,8.50
2018-12-18T23:45:53.833Z,8.50
2018-12-18T23:48:23.443Z,8.50
2018-12-18T23:50:57.298Z,8.50
2018-12-18T23:53:26.532Z,8.50
2018-12-18T23:56:00.398Z,8.50
2018-12-18T23:58:29.685Z,8.60
